createdAt,value
2018-03-11T00:00:44.332Z,77.13
2018-03-11T00:01:44.051Z,77.32
2018-03-11T00:02:44.308Z,77.13
2018-03-11T00:03:44.289Z,77.23
2018-03-11T00:04:44.008Z,77.23
2018-03-11T00:05:44.260Z,77.13
2018-03-11T00:06:44.244Z,77.7
2018-03-11T00:07:43.965Z,77.23
2018-03-11T00:08:43.950Z,77.23
2018-03-11T00:09:43.933Z,77.23
2018-03-11T00:10:44.187Z,77.7
2018-03-11T00:11:44.169Z,77.32
2018-03-11T00:12:43.892Z,77.13
2018-03-11T00:13:44.147Z,77.03
2018-03-11T00:14:44.216Z,77.13
2018-03-11T00:15:44.109Z,77.61
2018-03-11T00:16:44.105Z,77.23
2018-03-11T00:17:44.081Z,77.7
2018-03-11T00:18:43.803Z,77.42
2018-03-11T00:19:43.788Z,77.23
2018-03-11T00:20:43.782Z,77.23
2018-03-11T00:21:44.023Z,77.13
2018-03-11T00:22:43.747Z,77.42
2018-03-11T00:23:44.003Z,77.32
2018-03-11T00:24:43.715Z,77.03
2018-03-11T00:25:43.701Z,77.03
2018-03-11T00:26:43.686Z,77.03
2018-03-11T00:27:43.676Z,77.03
2018-03-11T00:28:43.658Z,77.51
2018-03-11T00:29:43.642Z,77.42
2018-03-11T00:30:43.891Z,77.13
2018-03-11T00:31:43.613Z,77.32
2018-03-11T00:32:43.604Z,77.13
2018-03-11T00:33:43.849Z,76.56
2018-03-11T00:34:43.579Z,76.84
2018-03-11T00:35:43.817Z,76.75
2018-03-11T00:36:43.803Z,76.65
2018-03-11T00:37:43.793Z,76.75
2018-03-11T00:38:43.509Z,76.56
2018-03-11T00:39:43.495Z,76.46
2018-03-11T00:40:43.753Z,77.23
2018-03-11T00:41:43.735Z,76.27
2018-03-11T00:42:43.716Z,76.75
2018-03-11T00:43:43.703Z,76.65
2018-03-11T00:44:43.423Z,76.65
2018-03-11T00:45:43.410Z,76.56
2018-03-11T00:46:43.659Z,77.13
2018-03-11T00:47:43.641Z,76.75
2018-03-11T00:48:43.628Z,76.84
2018-03-11T00:49:43.616Z,77.32
2018-03-11T00:50:43.335Z,77.32
2018-03-11T00:51:43.585Z,76.84
2018-03-11T00:52:43.306Z,76.84
2018-03-11T00:53:43.292Z,76.75
2018-03-11T00:54:43.277Z,76.84
2018-03-11T00:55:43.526Z,77.03
2018-03-11T00:56:43.247Z,77.51
2018-03-11T00:57:43.232Z,76.65
2018-03-11T00:58:43.216Z,77.32
2018-03-11T00:59:43.202Z,77.32
2018-03-11T01:00:43.462Z,77.61
2018-03-11T01:01:43.439Z,77.23
2018-03-11T01:02:43.159Z,77.03
2018-03-11T01:03:43.146Z,76.84
2018-03-11T01:04:43.133Z,77.32
2018-03-11T01:05:43.114Z,76.84
2018-03-11T01:06:43.363Z,76.84
2018-03-11T01:07:43.356Z,77.13
2018-03-11T01:08:43.077Z,77.13
2018-03-11T01:09:43.060Z,76.75
2018-03-11T01:10:43.043Z,76.84
2018-03-11T01:11:43.026Z,76.84
2018-03-11T01:12:43.013Z,77.23
2018-03-11T01:13:43.265Z,76.46
2018-03-11T01:14:42.988Z,76.65
2018-03-11T01:15:43.237Z,76.65
2018-03-11T01:16:42.954Z,76.84
2018-03-11T01:17:43.202Z,76.75
2018-03-11T01:18:42.931Z,76.37
2018-03-11T01:19:43.178Z,76.46
2018-03-11T01:20:43.160Z,76.65
2018-03-11T01:21:43.148Z,76.65
2018-03-11T01:22:42.866Z,76.08
2018-03-11T01:23:42.860Z,76.65
2018-03-11T01:24:43.103Z,76.75
2018-03-11T01:25:42.823Z,76.75
2018-03-11T01:26:43.285Z,76.46
2018-03-11T01:27:42.794Z,75.79
2018-03-11T01:28:43.092Z,76.18
2018-03-11T01:29:43.032Z,76.56
2018-03-11T01:30:43.016Z,76.08
2018-03-11T01:31:42.740Z,76.18
2018-03-11T01:32:42.985Z,76.03
2018-03-11T01:33:42.758Z,76.31
2018-03-11T01:34:42.963Z,76.56
2018-03-11T01:35:42.680Z,76.27
2018-03-11T01:36:42.928Z,76.5
2018-03-11T01:37:42.913Z,76.18
2018-03-11T01:38:42.634Z,76.5
2018-03-11T01:39:42.619Z,76.12
2018-03-11T01:40:42.806Z,76.18
2018-03-11T01:41:42.590Z,76.03
2018-03-11T01:42:42.838Z,76.37
2018-03-11T01:43:42.614Z,76.08
2018-03-11T01:44:42.545Z,75.98
2018-03-11T01:45:42.530Z,75.98
2018-03-11T01:46:42.789Z,75.98
2018-03-11T01:47:42.771Z,75.51
2018-03-11T01:48:42.751Z,75.98
2018-03-11T01:49:42.473Z,75.98
2018-03-11T01:50:42.459Z,75.89
2018-03-11T01:51:42.707Z,75.42
2018-03-11T01:52:42.431Z,75.32
2018-03-11T01:53:42.678Z,75.7
2018-03-11T01:54:42.402Z,75.89
2018-03-11T01:55:42.386Z,75.13
2018-03-11T01:56:42.633Z,74.93
2018-03-11T01:57:42.626Z,75.22
2018-03-11T01:58:42.609Z,75.51
2018-03-11T01:59:42.332Z,75.13
2018-03-11T02:00:42.580Z,75.22
2018-03-11T02:01:42.296Z,75.6
2018-03-11T02:02:42.284Z,75.32
2018-03-11T02:03:42.535Z,75.6
2018-03-11T02:04:42.254Z,75.32
2018-03-11T02:05:42.241Z,75.32
2018-03-11T02:06:42.276Z,75.89
2018-03-11T02:07:42.473Z,75.03
2018-03-11T02:08:42.194Z,74.65
2018-03-11T02:09:42.446Z,74.55
2018-03-11T02:10:42.167Z,74.37
2018-03-11T02:11:42.155Z,74.37
2018-03-11T02:12:42.406Z,74.17
2018-03-11T02:13:42.390Z,74.08
2018-03-11T02:14:42.432Z,73.32
2018-03-11T02:15:42.364Z,73.98
2018-03-11T02:16:42.080Z,73.69
2018-03-11T02:17:42.336Z,72.99
2018-03-11T02:18:42.054Z,72.51
2018-03-11T02:19:42.036Z,73.08
2018-03-11T02:20:42.024Z,72.36
2018-03-11T02:21:42.007Z,72.13
2018-03-11T02:22:42.261Z,72.13
2018-03-11T02:23:41.978Z,72.42
2018-03-11T02:24:41.963Z,71.94
2018-03-11T02:25:42.214Z,72.03
2018-03-11T02:26:42.201Z,71.56
2018-03-11T02:27:41.920Z,71.66
2018-03-11T02:28:41.906Z,71.84
2018-03-11T02:29:42.155Z,71.37
2018-03-11T02:30:41.873Z,71.37
2018-03-11T02:31:42.127Z,70.79
2018-03-11T02:32:42.113Z,70.61
2018-03-11T02:33:41.829Z,71.27
2018-03-11T02:34:42.091Z,71.56
2018-03-11T02:35:42.070Z,70.98
2018-03-11T02:36:42.055Z,70.13
2018-03-11T02:37:41.778Z,70.51
2018-03-11T02:38:42.021Z,69.56
2018-03-11T02:39:42.006Z,69.17
2018-03-11T02:40:41.991Z,69.27
2018-03-11T02:41:41.713Z,69.37
2018-03-11T02:42:41.971Z,70.13
2018-03-11T02:43:41.951Z,69.65
2018-03-11T02:44:41.663Z,69.08
2018-03-11T02:45:41.916Z,68.47
2018-03-11T02:46:41.901Z,68.38
2018-03-11T02:47:41.623Z,68.09
2018-03-11T02:48:41.607Z,67.42
2018-03-11T02:49:41.853Z,67.14
2018-03-11T02:50:41.572Z,67.04
2018-03-11T02:51:41.823Z,66.28
2018-03-11T02:52:41.814Z,67.14
2018-03-11T02:53:41.526Z,66.66
2018-03-11T02:54:41.783Z,67.23
2018-03-11T02:55:41.761Z,67.04
2018-03-11T02:56:41.749Z,66.75
2018-03-11T02:57:41.728Z,66.75
2018-03-11T02:58:41.717Z,67.23
2018-03-11T02:59:41.776Z,67.23
2018-03-11T03:00:41.686Z,66.94
2018-03-11T03:01:41.668Z,66.66
2018-03-11T03:02:41.659Z,66.94
2018-03-11T03:03:41.375Z,67.14
2018-03-11T03:04:41.357Z,67.14
2018-03-11T03:05:41.610Z,67.04
2018-03-11T03:06:41.333Z,65.99
2018-03-11T03:07:41.312Z,65.89
2018-03-11T03:08:41.567Z,65.61
2018-03-11T03:09:41.281Z,65.8
2018-03-11T03:10:41.266Z,65.29
2018-03-11T03:11:41.517Z,64.62
2018-03-11T03:12:41.502Z,64.72
2018-03-11T03:13:41.484Z,63.86
2018-03-11T03:14:41.464Z,64.34
2018-03-11T03:15:41.186Z,63.67
2018-03-11T03:16:41.436Z,64.15
2018-03-11T03:17:41.423Z,64.15
2018-03-11T03:18:41.404Z,64.43
2018-03-11T03:19:41.125Z,64.72
2018-03-11T03:20:41.374Z,63.67
2018-03-11T03:21:41.363Z,63.99
2018-03-11T03:22:41.349Z,63.96
2018-03-11T03:23:41.326Z,63.76
2018-03-11T03:24:41.308Z,62.91
2018-03-11T03:25:41.302Z,62.72
2018-03-11T03:26:41.279Z,63.29
2018-03-11T03:27:40.997Z,62.81
2018-03-11T03:28:40.984Z,63.76
2018-03-11T03:29:41.233Z,63.76
2018-03-11T03:30:41.226Z,64.05
2018-03-11T03:31:41.205Z,64.24
2018-03-11T03:32:40.920Z,63.76
2018-03-11T03:33:41.169Z,64.62
2018-03-11T03:34:40.888Z,64.43
2018-03-11T03:35:41.136Z,64.62
2018-03-11T03:36:40.860Z,64.81
2018-03-11T03:37:40.838Z,65.2
2018-03-11T03:38:40.827Z,64.53
2018-03-11T03:39:40.810Z,64.62
2018-03-11T03:40:40.994Z,65
2018-03-11T03:41:40.776Z,65.16
2018-03-11T03:42:41.026Z,64.78
2018-03-11T03:43:40.746Z,64.97
2018-03-11T03:44:40.728Z,65.16
2018-03-11T03:45:40.978Z,64.59
2018-03-11T03:46:40.963Z,64.59
2018-03-11T03:47:40.680Z,64.78
2018-03-11T03:48:40.935Z,64.59
2018-03-11T03:49:40.648Z,64.21
2018-03-11T03:50:40.633Z,64.02
2018-03-11T03:51:40.882Z,64.31
2018-03-11T03:52:40.869Z,63.83
2018-03-11T03:53:40.584Z,63.64
2018-03-11T03:54:40.836Z,63.35
2018-03-11T03:55:40.816Z,63.45
2018-03-11T03:56:40.538Z,63.07
2018-03-11T03:57:40.525Z,63.04
2018-03-11T03:58:40.510Z,62.49
2018-03-11T03:59:40.756Z,62.68
2018-03-11T04:00:40.471Z,62.27
2018-03-11T04:01:40.455Z,60.49
2018-03-11T04:02:40.439Z,60.21
2018-03-11T04:03:40.688Z,60.21
2018-03-11T04:04:40.404Z,60.3
2018-03-11T04:05:40.658Z,60.21
2018-03-11T04:06:40.638Z,60.11
2018-03-11T04:07:40.359Z,60.02
2018-03-11T04:08:40.608Z,59.64
2018-03-11T04:09:40.589Z,59.54
2018-03-11T04:10:40.311Z,59.45
2018-03-11T04:11:40.557Z,59.83
2018-03-11T04:12:40.543Z,59.16
2018-03-11T04:13:40.531Z,59.26
2018-03-11T04:14:40.244Z,59.16
2018-03-11T04:15:40.227Z,59.54
2018-03-11T04:16:40.479Z,59.35
2018-03-11T04:17:40.194Z,59.26
2018-03-11T04:18:40.445Z,59.26
2018-03-11T04:19:40.161Z,59.35
2018-03-11T04:20:40.414Z,59.35
2018-03-11T04:21:40.394Z,59.83
2018-03-11T04:22:40.112Z,59.03
2018-03-11T04:23:40.091Z,58.97
2018-03-11T04:24:40.081Z,59.32
2018-03-11T04:25:40.328Z,59.32
2018-03-11T04:26:40.309Z,58.94
2018-03-11T04:27:40.297Z,58.47
2018-03-11T04:28:40.279Z,58.65
2018-03-11T04:29:40.265Z,58.94
2018-03-11T04:30:39.985Z,58.56
2018-03-11T04:31:40.232Z,58.75
2018-03-11T04:32:39.948Z,57.99
2018-03-11T04:33:40.200Z,57.8
2018-03-11T04:34:39.914Z,58.37
2018-03-11T04:35:39.899Z,58.37
2018-03-11T04:36:39.880Z,58.28
2018-03-11T04:37:40.127Z,57.89
2018-03-11T04:38:40.113Z,57.7
2018-03-11T04:39:40.095Z,57.51
2018-03-11T04:40:39.813Z,57.13
2018-03-11T04:41:39.798Z,57.42
2018-03-11T04:42:40.047Z,57.13
2018-03-11T04:43:39.768Z,57.13
2018-03-11T04:44:40.017Z,57.13
2018-03-11T04:45:39.997Z,56.94
2018-03-11T04:46:39.711Z,57.04
2018-03-11T04:47:39.962Z,56.94
2018-03-11T04:48:39.684Z,57.04
2018-03-11T04:49:39.929Z,57.23
2018-03-11T04:50:39.921Z,57.51
2018-03-11T04:51:39.897Z,57.13
2018-03-11T04:52:39.615Z,57.04
2018-03-11T04:53:39.866Z,57.04
2018-03-11T04:54:39.590Z,57.99
2018-03-11T04:55:39.563Z,57.23
2018-03-11T04:56:39.817Z,57.23
2018-03-11T04:57:39.530Z,57.99
2018-03-11T04:58:39.785Z,57.51
2018-03-11T04:59:39.763Z,57.42
2018-03-11T05:00:39.750Z,57.32
2018-03-11T05:01:39.462Z,57.48
2018-03-11T05:02:39.452Z,57.51
2018-03-11T05:03:39.693Z,56.65
2018-03-11T05:04:39.414Z,57.2
2018-03-11T05:05:39.395Z,55.9
2018-03-11T05:06:39.381Z,55.8
2018-03-11T05:07:39.365Z,55.7
2018-03-11T05:08:39.346Z,55.61
2018-03-11T05:09:39.599Z,55.7
2018-03-11T05:10:39.315Z,55.7
2018-03-11T05:11:39.296Z,55.7
2018-03-11T05:12:39.276Z,55.9
2018-03-11T05:13:39.267Z,56.09
2018-03-11T05:14:39.511Z,55.61
2018-03-11T05:15:39.497Z,55.9
2018-03-11T05:16:39.475Z,55.99
2018-03-11T05:17:39.195Z,56.18
2018-03-11T05:18:39.444Z,56.24
2018-03-11T05:19:39.162Z,55.77
2018-03-11T05:20:39.417Z,56.24
2018-03-11T05:21:39.128Z,55.68
2018-03-11T05:22:39.112Z,55.68
2018-03-11T05:23:39.094Z,55.68
2018-03-11T05:24:39.344Z,55.68
2018-03-11T05:25:39.359Z,55.96
2018-03-11T05:26:39.313Z,55.87
2018-03-11T05:27:39.305Z,56.05
2018-03-11T05:28:39.010Z,55.87
2018-03-11T05:29:39.261Z,55.96
2018-03-11T05:30:39.243Z,56.15
2018-03-11T05:31:39.223Z,55.96
2018-03-11T05:32:38.942Z,55.96
2018-03-11T05:33:38.928Z,56.05
2018-03-11T05:34:38.906Z,56.24
2018-03-11T05:35:39.155Z,55.77
2018-03-11T05:36:39.144Z,55.68
2018-03-11T05:37:39.128Z,55.49
2018-03-11T05:38:39.111Z,55.58
2018-03-11T05:39:38.827Z,55.29
2018-03-11T05:40:39.010Z,55.49
2018-03-11T05:41:38.792Z,55.39
2018-03-11T05:42:39.094Z,55.49
2018-03-11T05:43:39.021Z,55.58
2018-03-11T05:44:39.007Z,55.49
2018-03-11T05:45:38.723Z,55.58
2018-03-11T05:46:38.976Z,55.2
2018-03-11T05:47:38.685Z,55.2
2018-03-11T05:48:38.666Z,55.2
2018-03-11T05:49:38.917Z,55.29
2018-03-11T05:50:38.635Z,54.63
2018-03-11T05:51:38.617Z,54.35
2018-03-11T05:52:38.871Z,54.25
2018-03-11T05:53:38.847Z,54.27
2018-03-11T05:54:38.835Z,53.7
2018-03-11T05:55:38.814Z,53.8
2018-03-11T05:56:38.802Z,53.89
2018-03-11T05:57:38.781Z,53.13
2018-03-11T05:58:38.498Z,53.23
2018-03-11T05:59:38.483Z,53.42
2018-03-11T06:00:38.467Z,53.23
2018-03-11T06:01:38.446Z,53.42
2018-03-11T06:02:38.692Z,53.23
2018-03-11T06:03:38.677Z,53.42
2018-03-11T06:04:38.661Z,53.8
2018-03-11T06:05:38.378Z,53.99
2018-03-11T06:06:38.361Z,53.7
2018-03-11T06:07:38.608Z,53.7
2018-03-11T06:08:38.591Z,53.58
2018-03-11T06:09:38.575Z,53.87
2018-03-11T06:10:38.633Z,53.58
2018-03-11T06:11:38.538Z,53.61
2018-03-11T06:12:38.521Z,53.99
2018-03-11T06:13:38.509Z,54.35
2018-03-11T06:14:38.225Z,53.87
2018-03-11T06:15:38.475Z,53.77
2018-03-11T06:16:38.452Z,54.35
2018-03-11T06:17:38.442Z,53.87
2018-03-11T06:18:38.158Z,53.58
2018-03-11T06:19:38.401Z,53.58
2018-03-11T06:20:38.121Z,53.49
2018-03-11T06:21:38.107Z,53.58
2018-03-11T06:22:38.352Z,53.99
2018-03-11T06:23:38.340Z,53.13
2018-03-11T06:24:38.316Z,53.23
2018-03-11T06:25:38.303Z,53.23
2018-03-11T06:26:38.284Z,53.04
2018-03-11T06:27:38.002Z,53.13
2018-03-11T06:28:38.252Z,53.04
2018-03-11T06:29:37.967Z,53.13
2018-03-11T06:30:38.213Z,53.23
2018-03-11T06:31:38.199Z,53.23
2018-03-11T06:32:37.918Z,53.32
2018-03-11T06:33:38.164Z,53.32
2018-03-11T06:34:38.149Z,52.94
2018-03-11T06:35:37.867Z,53.13
2018-03-11T06:36:37.851Z,53.61
2018-03-11T06:37:37.833Z,53.83
2018-03-11T06:38:38.085Z,53.92
2018-03-11T06:39:37.800Z,54.3
2018-03-11T06:40:38.050Z,54.02
2018-03-11T06:41:38.035Z,54.21
2018-03-11T06:42:38.013Z,54.49
2018-03-11T06:43:38.001Z,54.49
2018-03-11T06:44:37.979Z,55.16
2018-03-11T06:45:37.965Z,55.35
2018-03-11T06:46:37.948Z,55.26
2018-03-11T06:47:37.666Z,55.26
2018-03-11T06:48:37.649Z,55.73
2018-03-11T06:49:37.902Z,55.92
2018-03-11T06:50:37.883Z,56.49
2018-03-11T06:51:37.866Z,56.78
2018-03-11T06:52:37.847Z,56.49
2018-03-11T06:53:37.586Z,57.07
2018-03-11T06:54:37.549Z,57.45
2018-03-11T06:55:37.558Z,58.02
2018-03-11T06:56:37.782Z,57.73
2018-03-11T06:57:37.773Z,57.54
2018-03-11T06:58:37.756Z,57.73
2018-03-11T06:59:37.467Z,58.21
2018-03-11T07:00:37.450Z,58.4
2018-03-11T07:01:37.702Z,58.69
2018-03-11T07:02:37.701Z,58.78
2018-03-11T07:03:37.666Z,58.59
2018-03-11T07:04:37.386Z,59.06
2018-03-11T07:05:37.637Z,59.19
2018-03-11T07:06:37.355Z,59.86
2018-03-11T07:07:37.339Z,59.74
2018-03-11T07:08:37.320Z,60.24
2018-03-11T07:09:37.571Z,60.33
2018-03-11T07:10:37.290Z,60.52
2018-03-11T07:11:37.276Z,60.91
2018-03-11T07:12:37.521Z,61.29
2018-03-11T07:13:37.245Z,61.29
2018-03-11T07:14:37.489Z,62.05
2018-03-11T07:15:37.478Z,62.34
2018-03-11T07:16:37.196Z,62.15
2018-03-11T07:17:37.178Z,62.05
2018-03-11T07:18:37.425Z,62.24
2018-03-11T07:19:37.146Z,62.34
2018-03-11T07:20:37.392Z,62.81
2018-03-11T07:21:37.114Z,62.62
2018-03-11T07:22:37.363Z,62.81
2018-03-11T07:23:37.349Z,62.52
2018-03-11T07:24:37.067Z,63.1
2018-03-11T07:25:37.315Z,63.67
2018-03-11T07:26:37.037Z,64.34
2018-03-11T07:27:37.023Z,64.05
2018-03-11T07:28:37.267Z,64.43
2018-03-11T07:29:37.253Z,65.39
2018-03-11T07:30:37.237Z,65
2018-03-11T07:31:37.224Z,65.77
2018-03-11T07:32:36.941Z,66.53
2018-03-11T07:33:37.197Z,66.44
2018-03-11T07:34:37.175Z,67.1
2018-03-11T07:35:36.894Z,67.14
2018-03-11T07:36:37.151Z,68.09
2018-03-11T07:37:37.129Z,67.61
2018-03-11T07:38:37.110Z,68.85
2018-03-11T07:39:37.100Z,68.57
2018-03-11T07:40:37.017Z,69.14
2018-03-11T07:41:37.066Z,69.33
2018-03-11T07:42:36.784Z,69.62
2018-03-11T07:43:37.039Z,69.43
2018-03-11T07:44:37.021Z,69.52
2018-03-11T07:45:37.025Z,70
2018-03-11T07:46:36.989Z,70.19
2018-03-11T07:47:36.971Z,70.47
2018-03-11T07:48:36.972Z,70.38
2018-03-11T07:49:36.945Z,70.47
2018-03-11T07:50:36.667Z,71.23
2018-03-11T07:51:36.644Z,71.23
2018-03-11T07:52:36.630Z,71.72
2018-03-11T07:53:36.618Z,71.72
2018-03-11T07:54:36.957Z,72.09
2018-03-11T07:55:36.584Z,72.19
2018-03-11T07:56:36.571Z,72.19
2018-03-11T07:57:36.553Z,72.19
2018-03-11T07:58:36.804Z,72.09
2018-03-11T07:59:36.796Z,72.48
2018-03-11T08:00:36.779Z,72.38
2018-03-11T08:01:36.757Z,72.86
2018-03-11T08:02:36.504Z,73.05
2018-03-11T08:03:36.730Z,72.67
2018-03-11T08:04:36.765Z,72.76
2018-03-11T08:05:36.432Z,73.52
2018-03-11T08:06:36.726Z,74.04
2018-03-11T08:07:36.405Z,74.42
2018-03-11T08:08:36.654Z,74.9
2018-03-11T08:09:36.373Z,75.09
2018-03-11T08:10:36.623Z,75.28
2018-03-11T08:11:36.609Z,76.71
2018-03-11T08:12:36.594Z,76.33
2018-03-11T08:13:36.582Z,77.09
2018-03-11T08:14:36.658Z,76.9
2018-03-11T08:15:36.552Z,77
2018-03-11T08:16:36.534Z,76.9
2018-03-11T08:17:36.257Z,77.57
2018-03-11T08:18:36.254Z,77.86
2018-03-11T08:19:36.496Z,78.14
2018-03-11T08:20:36.221Z,78.52
2018-03-11T08:21:36.200Z,78.05
2018-03-11T08:22:36.182Z,78.72
2018-03-11T08:23:36.172Z,78.91
2018-03-11T08:24:36.418Z,79.28
2018-03-11T08:25:36.142Z,79.28
2018-03-11T08:26:36.391Z,79.48
2018-03-11T08:27:36.374Z,80.15
2018-03-11T08:28:36.360Z,80.05
2018-03-11T08:29:36.350Z,79.96
2018-03-11T08:30:36.339Z,80.53
2018-03-11T08:31:36.324Z,79.77
2018-03-11T08:32:36.038Z,80.72
2018-03-11T08:33:36.291Z,80.91
2018-03-11T08:34:36.284Z,81.2
2018-03-11T08:35:36.262Z,80.62
2018-03-11T08:36:35.985Z,81.48
2018-03-11T08:37:36.291Z,81.33
2018-03-11T08:38:35.957Z,81.58
2018-03-11T08:39:36.205Z,81.77
2018-03-11T08:40:36.196Z,81.58
2018-03-11T08:41:36.185Z,81.81
2018-03-11T08:42:35.896Z,82.29
2018-03-11T08:43:36.149Z,81.96
2018-03-11T08:44:35.865Z,82.82
2018-03-11T08:45:36.112Z,82.34
2018-03-11T08:46:36.114Z,82.19
2018-03-11T08:47:36.090Z,82.57
2018-03-11T08:48:36.070Z,82.57
2018-03-11T08:49:36.057Z,82.38
2018-03-11T08:50:35.779Z,82.48
2018-03-11T08:51:35.775Z,82.57
2018-03-11T08:52:35.790Z,82.86
2018-03-11T08:53:35.735Z,82.67
2018-03-11T08:54:35.993Z,82.86
2018-03-11T08:55:35.969Z,83.43
2018-03-11T08:56:35.978Z,82.67
2018-03-11T08:57:35.678Z,83.91
2018-03-11T08:58:35.666Z,83.91
2018-03-11T08:59:35.646Z,84.39
2018-03-11T09:00:35.632Z,83.62
2018-03-11T09:01:35.886Z,83.91
2018-03-11T09:02:35.874Z,84.1
2018-03-11T09:03:35.864Z,84.1
2018-03-11T09:04:35.835Z,84.1
2018-03-11T09:05:35.565Z,84.2
2018-03-11T09:06:35.810Z,84.29
2018-03-11T09:07:35.799Z,85.15
2018-03-11T09:08:35.782Z,85.34
2018-03-11T09:09:35.773Z,86.96
2018-03-11T09:10:35.909Z,90.73
2018-03-11T09:11:35.476Z,92.88
2018-03-11T09:12:35.725Z,93.16
2018-03-11T09:13:35.450Z,92.88
2018-03-11T09:14:35.432Z,93.26
2018-03-11T09:15:35.420Z,93.79
2018-03-11T09:16:35.671Z,92.5
2018-03-11T09:17:35.660Z,92.69
2018-03-11T09:18:35.379Z,92.3
2018-03-11T09:19:35.629Z,91.83
2018-03-11T09:20:35.349Z,92.3
2018-03-11T09:21:35.368Z,92.5
2018-03-11T09:22:35.595Z,92.69
2018-03-11T09:23:35.577Z,93.36
2018-03-11T09:24:35.567Z,92.79
2018-03-11T09:25:35.288Z,92.79
2018-03-11T09:26:35.542Z,92.4
2018-03-11T09:27:35.260Z,92.79
2018-03-11T09:28:35.511Z,92.11
2018-03-11T09:29:35.504Z,92.11
2018-03-11T09:30:35.491Z,93.07
2018-03-11T09:31:35.209Z,91.74
2018-03-11T09:32:35.512Z,91.83
2018-03-11T09:33:35.183Z,91.35
2018-03-11T09:34:35.435Z,91.35
2018-03-11T09:35:35.156Z,91.45
2018-03-11T09:36:35.143Z,91.16
2018-03-11T09:37:35.396Z,91.25
2018-03-11T09:38:35.385Z,90.97
2018-03-11T09:39:35.107Z,90.2
2018-03-11T09:40:35.341Z,90.68
2018-03-11T09:41:35.344Z,90.39
2018-03-11T09:42:35.070Z,90.39
2018-03-11T09:43:35.051Z,89.63
2018-03-11T09:44:35.038Z,89.63
2018-03-11T09:45:35.025Z,89.92
2018-03-11T09:46:35.279Z,89.63
2018-03-11T09:47:35.000Z,89.53
2018-03-11T09:48:35.275Z,90.11
2018-03-11T09:49:34.975Z,90.01
2018-03-11T09:50:35.222Z,90.3
2018-03-11T09:51:34.945Z,89.82
2018-03-11T09:52:35.334Z,89.15
2018-03-11T09:53:35.189Z,88.96
2018-03-11T09:54:35.173Z,89.53
2018-03-11T09:55:35.175Z,90.01
2018-03-11T09:56:35.144Z,90.2
2018-03-11T09:57:35.129Z,89.44
2018-03-11T09:58:34.882Z,89.92
2018-03-11T09:59:34.836Z,90.49
2018-03-11T10:00:34.827Z,90.78
2018-03-11T10:01:34.812Z,91.59
2018-03-11T10:02:34.800Z,91.11
2018-03-11T10:03:35.059Z,90.82
2018-03-11T10:04:35.044Z,92.64
2018-03-11T10:05:34.762Z,91.39
2018-03-11T10:06:35.031Z,91.49
2018-03-11T10:07:35.003Z,91.59
2018-03-11T10:08:34.724Z,92.83
2018-03-11T10:09:34.711Z,92.4
2018-03-11T10:10:35.049Z,94.98
2018-03-11T10:11:34.954Z,95.36
2018-03-11T10:12:34.936Z,96.03
2018-03-11T10:13:35.020Z,96.61
2018-03-11T10:14:34.916Z,96.51
2018-03-11T10:15:34.908Z,96.75
2018-03-11T10:16:34.896Z,96.75
2018-03-11T10:17:34.880Z,98.38
2018-03-11T10:18:34.623Z,99.99
2018-03-11T10:19:34.590Z,97.9
2018-03-11T10:20:34.851Z,98.76
2018-03-11T10:21:34.832Z,99.99
2018-03-11T10:22:34.825Z,99.99
2018-03-11T10:23:34.810Z,99.99
2018-03-11T10:24:34.809Z,99.99
2018-03-11T10:25:34.522Z,99.99
2018-03-11T10:26:34.792Z,99.99
2018-03-11T10:27:34.497Z,99.99
2018-03-11T10:28:34.485Z,99.99
2018-03-11T10:29:34.473Z,99.99
2018-03-11T10:30:34.729Z,99.99
2018-03-11T10:31:34.716Z,99.99
2018-03-11T10:32:34.707Z,99.99
2018-03-11T10:33:34.701Z,99.99
2018-03-11T10:34:34.683Z,99.99
2018-03-11T10:35:34.665Z,99.99
2018-03-11T10:36:34.394Z,99.99
2018-03-11T10:37:34.384Z,99.99
2018-03-11T10:38:34.634Z,99.99
2018-03-11T10:39:34.623Z,99.99
2018-03-11T10:40:34.614Z,99.99
2018-03-11T10:41:34.334Z,99.99
2018-03-11T10:42:34.321Z,99.99
2018-03-11T10:43:34.310Z,99.99
2018-03-11T10:44:34.583Z,99.99
2018-03-11T10:45:34.287Z,99.99
2018-03-11T10:46:34.542Z,99.99
2018-03-11T10:47:34.533Z,99.99
2018-03-11T10:48:34.255Z,99.99
2018-03-11T10:49:34.239Z,99.99
2018-03-11T10:50:34.490Z,99.99
2018-03-11T10:51:34.226Z,99.99
2018-03-11T10:52:34.202Z,99.99
2018-03-11T10:53:34.460Z,99.99
2018-03-11T10:54:34.229Z,99.99
2018-03-11T10:55:34.197Z,99.99
2018-03-11T10:56:34.156Z,99.99
2018-03-11T10:57:34.413Z,99.99
2018-03-11T10:58:34.398Z,99.99
2018-03-11T10:59:34.385Z,99.99
2018-03-11T11:00:34.375Z,99.99
2018-03-11T11:01:34.098Z,99.99
2018-03-11T11:02:34.352Z,99.99
2018-03-11T11:03:34.080Z,99.99
2018-03-11T11:04:34.066Z,99.99
2018-03-11T11:05:34.321Z,99.99
2018-03-11T11:06:34.310Z,99.99
2018-03-11T11:07:34.300Z,99.99
2018-03-11T11:08:34.026Z,99.99
2018-03-11T11:09:34.281Z,99.99
2018-03-11T11:10:34.267Z,99.99
2018-03-11T11:11:34.254Z,99.99
2018-03-11T11:12:33.976Z,99.99
2018-03-11T11:13:33.967Z,99.99
2018-03-11T11:14:34.221Z,99.99
2018-03-11T11:15:34.216Z,99.99
2018-03-11T11:16:33.939Z,99.99
2018-03-11T11:17:34.191Z,99.99
2018-03-11T11:18:34.175Z,99.99
2018-03-11T11:19:34.161Z,99.99
2018-03-11T11:20:33.884Z,99.99
2018-03-11T11:21:34.138Z,99.99
2018-03-11T11:22:34.130Z,99.99
2018-03-11T11:23:33.852Z,99.99
2018-03-11T11:24:33.881Z,99.99
2018-03-11T11:25:34.156Z,99.99
2018-03-11T11:26:34.084Z,99.99
2018-03-11T11:27:33.808Z,99.99
2018-03-11T11:28:34.061Z,99.99
2018-03-11T11:29:33.784Z,99.99
2018-03-11T11:30:34.040Z,99.99
2018-03-11T11:31:33.772Z,99.99
2018-03-11T11:32:33.747Z,99.99
2018-03-11T11:33:33.740Z,99.99
2018-03-11T11:34:33.997Z,99.99
2018-03-11T11:35:33.718Z,99.99
2018-03-11T11:36:33.756Z,99.99
2018-03-11T11:37:33.717Z,99.99
2018-03-11T11:38:33.686Z,99.99
2018-03-11T11:39:33.946Z,99.99
2018-03-11T11:40:33.674Z,99.99
2018-03-11T11:41:33.921Z,99.99
2018-03-11T11:42:33.909Z,99.99
2018-03-11T11:43:33.903Z,99.99
2018-03-11T11:44:33.637Z,99.99
2018-03-11T11:45:33.880Z,99.99
2018-03-11T11:46:33.871Z,99.99
2018-03-11T11:47:33.860Z,99.99
2018-03-11T11:48:33.852Z,99.99
2018-03-11T11:49:33.569Z,99.99
2018-03-11T11:50:33.933Z,99.99
2018-03-11T11:51:33.855Z,99.99
2018-03-11T11:52:33.561Z,99.99
2018-03-11T11:53:33.795Z,99.99
2018-03-11T11:54:33.783Z,99.99
2018-03-11T11:55:33.833Z,99.99
2018-03-11T11:56:33.528Z,99.99
2018-03-11T11:57:33.772Z,99.99
2018-03-11T11:58:33.906Z,99.99
2018-03-11T11:59:33.756Z,99.99
2018-03-11T12:00:33.460Z,99.99
2018-03-11T12:01:33.501Z,99.99
2018-03-11T12:02:33.708Z,99.99
2018-03-11T12:03:33.431Z,99.99
2018-03-11T12:04:33.678Z,99.99
2018-03-11T12:05:33.400Z,99.99
2018-03-11T12:06:33.651Z,99.99
2018-03-11T12:07:33.379Z,99.99
2018-03-11T12:08:33.642Z,99.99
2018-03-11T12:09:33.353Z,99.99
2018-03-11T12:10:33.622Z,99.99
2018-03-11T12:11:33.597Z,99.99
2018-03-11T12:12:33.624Z,99.99
2018-03-11T12:13:33.323Z,99.99
2018-03-11T12:14:33.564Z,99.99
2018-03-11T12:15:33.551Z,99.99
2018-03-11T12:16:33.270Z,99.99
2018-03-11T12:17:33.524Z,99.99
2018-03-11T12:18:33.251Z,99.99
2018-03-11T12:19:33.237Z,99.99
2018-03-11T12:20:33.490Z,99.99
2018-03-11T12:21:33.217Z,99.99
2018-03-11T12:22:33.500Z,99.99
2018-03-11T12:23:33.464Z,99.99
2018-03-11T12:24:33.179Z,99.99
2018-03-11T12:25:33.165Z,99.99
2018-03-11T12:26:33.155Z,99.99
2018-03-11T12:27:33.421Z,99.99
2018-03-11T12:28:33.399Z,99.99
2018-03-11T12:29:33.123Z,99.99
2018-03-11T12:30:33.378Z,99.99
2018-03-11T12:31:33.366Z,99.99
2018-03-11T12:32:33.084Z,99.99
2018-03-11T12:33:33.346Z,99.99
2018-03-11T12:34:33.110Z,99.99
2018-03-11T12:35:33.321Z,99.99
2018-03-11T12:36:33.311Z,99.99
2018-03-11T12:37:33.287Z,99.99
2018-03-11T12:38:33.022Z,99.99
2018-03-11T12:39:33.269Z,99.99
2018-03-11T12:40:33.261Z,99.99
2018-03-11T12:41:32.980Z,99.99
2018-03-11T12:42:33.239Z,99.99
2018-03-11T12:43:32.955Z,99.99
2018-03-11T12:44:33.213Z,99.99
2018-03-11T12:45:33.194Z,99.99
2018-03-11T12:46:33.187Z,99.99
2018-03-11T12:47:33.177Z,99.99
2018-03-11T12:48:33.168Z,99.99
2018-03-11T12:49:33.142Z,99.99
2018-03-11T12:50:33.140Z,99.99
2018-03-11T12:51:33.125Z,99.99
2018-03-11T12:52:33.152Z,99.99
2018-03-11T12:53:33.096Z,99.99
2018-03-11T12:54:33.082Z,99.99